Time;durP1;ratioP1;P1;durP2;ratioP2;P2;SDS_P1;SDS_P2;PMS_P1;PMS_P2;Temp;Humidity;BMP_temperature;BMP_pressure;BME280_temperature;BME280_humidity;BME280_pressure;Samples;Min_cycle;Max_cycle;Signal;HPM_P1;HPM_P2
2021/10/24 00:02:46;;;;;;;4.57;3.47;;;7.70;33.00;;;;;;10387006;28;20256;-76
2021/10/24 00:07:52;;;;;;;4.03;3.00;;;7.70;33.00;;;;;;10384270;28;20236;-76
2021/10/24 00:13:00;;;;;;;3.30;3.00;;;7.70;33.20;;;;;;10384506;28;20287;-76
2021/10/24 00:18:05;;;;;;;3.10;2.80;;;7.70;33.10;;;;;;10392937;28;20659;-76
2021/10/24 00:23:10;;;;;;;3.60;3.27;;;7.60;33.00;;;;;;10395262;28;20250;-76
2021/10/24 00:28:13;;;;;;;3.70;3.30;;;7.60;33.20;;;;;;10397223;28;20613;-75
2021/10/24 00:33:22;;;;;;;4.87;4.37;;;7.60;33.20;;;;;;10382193;28;20257;-76
2021/10/24 00:38:27;;;;;;;3.80;3.40;;;7.50;33.80;;;;;;10393021;28;20574;-76
2021/10/24 00:49:55;;;;;;;5.33;3.40;;;7.40;33.60;;;;;;10380498;28;20269;-77
2021/10/24 00:55:01;;;;;;;3.70;3.03;;;7.40;33.20;;;;;;10369511;28;20238;-77
2021/10/24 01:00:06;;;;;;;3.63;3.17;;;7.30;33.30;;;;;;10387811;28;20218;-77
2021/10/24 01:05:12;;;;;;;3.60;3.30;;;7.30;33.50;;;;;;10381430;28;20725;-77
2021/10/24 01:10:20;;;;;;;3.50;3.17;;;7.20;33.40;;;;;;10394674;28;20283;-76
2021/10/24 01:15:27;;;;;;;3.77;3.47;;;7.20;33.50;;;;;;10404829;28;20234;-76
2021/10/24 01:20:31;;;;;;;3.70;3.40;;;7.20;34.60;;;;;;10395860;28;20260;-75
2021/10/24 01:25:36;;;;;;;3.97;3.40;;;7.20;33.60;;;;;;10391091;28;20234;-76
2021/10/24 01:30:39;;;;;;;4.03;3.70;;;7.10;33.70;;;;;;10392083;28;20237;-76
2021/10/24 01:35:51;;;;;;;3.53;3.23;;;7.10;33.60;;;;;;10403078;28;20240;-76
2021/10/24 01:40:57;;;;;;;4.00;3.40;;;7.10;34.30;;;;;;10392175;28;20230;-75
2021/10/24 01:46:00;;;;;;;4.00;3.17;;;7.00;33.70;;;;;;10389153;28;20255;-75
2021/10/24 01:51:04;;;;;;;3.30;3.00;;;7.00;33.60;;;;;;10390677;28;20226;-72
2021/10/24 01:56:09;;;;;;;3.40;3.10;;;6.90;33.50;;;;;;10385413;28;20229;-76
2021/10/24 02:01:13;;;;;;;3.17;2.83;;;6.80;33.90;;;;;;10368710;28;20242;-72
2021/10/24 02:06:18;;;;;;;3.03;2.73;;;6.80;33.80;;;;;;10380203;28;20698;-72
2021/10/24 02:11:25;;;;;;;3.73;3.33;;;6.70;33.70;;;;;;10378003;28;20729;-72
2021/10/24 02:16:31;;;;;;;3.90;3.47;;;6.70;34.00;;;;;;10379898;28;20260;-72
2021/10/24 02:21:35;;;;;;;2.97;2.77;;;6.70;34.00;;;;;;10379077;28;20233;-72
2021/10/24 02:26:41;;;;;;;3.87;3.30;;;6.60;33.70;;;;;;10371184;28;20237;-75
2021/10/24 02:31:48;;;;;;;3.53;2.97;;;6.60;33.90;;;;;;10383786;28;20230;-73
2021/10/24 02:36:53;;;;;;;3.70;3.40;;;6.50;34.00;;;;;;10373592;28;20242;-77
2021/10/24 02:42:00;;;;;;;3.50;3.10;;;6.50;33.80;;;;;;10378822;28;20324;-77
2021/10/24 02:47:05;;;;;;;3.30;3.00;;;6.50;34.10;;;;;;10374350;28;20586;-72
2021/10/24 02:52:10;;;;;;;3.37;2.77;;;6.50;33.90;;;;;;10382634;28;20242;-73
2021/10/24 02:57:16;;;;;;;2.87;2.30;;;6.50;33.80;;;;;;10377521;28;20237;-73
2021/10/24 03:02:20;;;;;;;3.03;2.83;;;6.50;34.10;;;;;;10376315;28;20295;-72
2021/10/24 03:07:23;;;;;;;5.73;3.40;;;6.50;33.90;;;;;;10383584;28;20263;-72
2021/10/24 03:12:28;;;;;;;4.50;2.83;;;6.40;33.90;;;;;;10379742;28;20723;-72
2021/10/24 03:17:31;;;;;;;3.50;3.20;;;6.40;34.00;;;;;;10380672;28;20245;-72
2021/10/24 03:22:34;;;;;;;2.93;2.70;;;6.40;33.90;;;;;;10376141;28;20237;-71
2021/10/24 03:27:51;;;;;;;2.70;2.50;;;6.40;33.90;;;;;;10382428;28;20234;-77
2021/10/24 03:32:55;;;;;;;3.10;2.70;;;6.40;34.10;;;;;;10363266;28;20238;-76
2021/10/24 03:38:00;;;;;;;3.03;2.73;;;6.30;33.90;;;;;;10384322;28;20236;-73
2021/10/24 03:43:05;;;;;;;4.17;2.97;;;6.30;34.00;;;;;;10379088;28;20241;-73
2021/10/24 03:48:09;;;;;;;3.53;2.60;;;6.20;33.90;;;;;;10377160;28;20235;-73
2021/10/24 03:53:13;;;;;;;2.97;2.73;;;6.20;34.00;;;;;;10370156;28;20234;-73
2021/10/24 03:58:27;;;;;;;3.17;2.60;;;6.10;34.00;;;;;;10372336;28;20236;-73
2021/10/24 04:03:32;;;;;;;2.50;2.30;;;6.10;34.60;;;;;;10374968;28;20254;-73
2021/10/24 04:08:36;;;;;;;3.53;3.10;;;6.00;34.00;;;;;;10382686;28;20238;-73
2021/10/24 04:13:42;;;;;;;4.37;2.80;;;6.00;34.00;;;;;;10385029;28;20249;-73
2021/10/24 04:18:45;;;;;;;3.80;2.57;;;6.00;34.20;;;;;;10381244;28;20849;-73
2021/10/24 04:23:48;;;;;;;2.93;2.47;;;6.00;33.90;;;;;;10379549;28;20801;-73
2021/10/24 04:28:53;;;;;;;2.77;2.43;;;6.00;34.00;;;;;;10379059;28;20233;-73
2021/10/24 04:33:57;;;;;;;2.90;2.63;;;5.90;34.10;;;;;;10374429;28;20676;-73
2021/10/24 04:39:00;;;;;;;3.13;2.50;;;5.90;34.00;;;;;;10377242;28;20237;-73
2021/10/24 04:44:05;;;;;;;2.80;2.50;;;5.90;34.20;;;;;;10384855;28;20237;-77
2021/10/24 04:49:08;;;;;;;2.70;2.50;;;5.80;34.30;;;;;;10382315;28;20682;-76
2021/10/24 04:54:12;;;;;;;4.33;2.60;;;5.80;34.20;;;;;;10382199;28;20629;-76
2021/10/24 04:59:19;;;;;;;3.33;2.80;;;5.80;34.30;;;;;;10374431;28;20230;-76
2021/10/24 05:04:23;;;;;;;3.57;2.43;;;5.80;34.50;;;;;;10376939;28;20230;-77
2021/10/24 05:09:27;;;;;;;2.47;2.20;;;5.70;34.30;;;;;;10380172;28;20226;-76
2021/10/24 05:14:32;;;;;;;3.40;2.60;;;5.80;34.40;;;;;;10379019;28;20590;-77
2021/10/24 05:19:37;;;;;;;3.03;2.67;;;5.60;34.30;;;;;;10370767;28;20627;-72
2021/10/24 05:24:41;;;;;;;3.67;2.50;;;5.60;34.30;;;;;;10372134;28;21161;-72
2021/10/24 05:29:45;;;;;;;3.87;2.60;;;5.60;34.20;;;;;;10372661;28;20226;-75
2021/10/24 05:34:49;;;;;;;3.30;2.53;;;5.60;34.30;;;;;;10380590;28;20234;-76
2021/10/24 05:39:55;;;;;;;2.83;2.63;;;5.50;34.30;;;;;;10366835;28;20238;-73
2021/10/24 05:45:00;;;;;;;2.97;2.20;;;5.60;34.50;;;;;;10384268;28;20252;-76
2021/10/24 05:50:05;;;;;;;2.67;2.47;;;5.50;34.40;;;;;;10401897;28;20225;-75
2021/10/24 05:55:09;;;;;;;3.60;2.70;;;5.60;34.50;;;;;;10391772;28;20233;-75
2021/10/24 06:00:15;;;;;;;3.60;2.57;;;5.40;34.40;;;;;;10383311;28;20229;-73
2021/10/24 06:05:19;;;;;;;4.10;2.77;;;5.50;34.80;;;;;;10375870;28;20325;-75
2021/10/24 06:10:29;;;;;;;2.60;2.40;;;5.40;34.50;;;;;;10404907;28;20741;-73
2021/10/24 06:15:40;;;;;;;3.20;2.63;;;5.40;34.60;;;;;;10378568;28;20257;-77
2021/10/24 06:20:45;;;;;;;3.33;2.73;;;5.40;35.20;;;;;;10384200;28;20277;-73
2021/10/24 06:25:48;;;;;;;2.97;2.77;;;5.40;34.70;;;;;;10385403;28;20243;-75
2021/10/24 06:30:53;;;;;;;3.10;2.77;;;5.40;34.70;;;;;;10367495;28;20728;-75
2021/10/24 06:35:58;;;;;;;3.33;3.00;;;5.40;35.00;;;;;;10373178;28;20280;-75
2021/10/24 06:46:59;;;;;;;4.20;3.23;;;5.40;35.80;;;;;;10364141;28;20222;-71
2021/10/24 06:52:05;;;;;;;3.67;3.23;;;5.40;35.30;;;;;;10385610;28;20243;-74
2021/10/24 06:57:08;;;;;;;3.67;3.10;;;5.40;35.30;;;;;;10384262;28;20263;-72
2021/10/24 07:02:13;;;;;;;4.00;3.53;;;5.40;35.30;;;;;;10386158;28;20707;-72
2021/10/24 07:07:21;;;;;;;4.07;3.63;;;5.40;35.70;;;;;;10389879;28;20229;-73
2021/10/24 07:12:24;;;;;;;4.93;3.87;;;5.50;35.80;;;;;;10385303;28;20645;-76
2021/10/24 07:17:30;;;;;;;5.00;4.00;;;5.50;35.90;;;;;;10394126;28;20725;-75
2021/10/24 07:22:35;;;;;;;4.90;3.67;;;5.60;36.40;;;;;;10386685;28;20230;-75
2021/10/24 07:27:40;;;;;;;5.10;4.30;;;5.60;36.20;;;;;;10377967;28;20237;-71
2021/10/24 07:32:45;;;;;;;6.63;4.77;;;5.70;36.50;;;;;;10380124;28;20214;-75
2021/10/24 07:37:48;;;;;;;5.20;4.50;;;5.80;37.00;;;;;;10374527;28;20268;-75
2021/10/24 07:42:56;;;;;;;4.83;4.10;;;5.90;36.90;;;;;;10387238;28;20640;-75
2021/10/24 07:48:04;;;;;;;6.17;4.57;;;6.00;37.60;;;;;;10387984;28;20229;-74
2021/10/24 07:53:11;;;;;;;5.23;4.57;;;6.20;37.80;;;;;;10362637;28;20257;-72
2021/10/24 07:58:18;;;;;;;5.07;4.30;;;6.40;37.90;;;;;;10381717;28;20233;-72
2021/10/24 08:03:24;;;;;;;5.30;4.57;;;6.70;38.10;;;;;;10379676;28;20877;-75
2021/10/24 08:08:28;;;;;;;5.97;4.53;;;7.00;38.40;;;;;;10374297;28;20769;-72
2021/10/24 08:13:32;;;;;;;5.17;4.67;;;7.20;38.60;;;;;;10375115;28;20226;-76
2021/10/24 08:18:39;;;;;;;5.67;4.60;;;7.50;38.80;;;;;;10384397;28;20244;-76
2021/10/24 08:23:43;;;;;;;4.80;4.27;;;7.90;39.10;;;;;;10376585;28;20710;-76
2021/10/24 08:28:47;;;;;;;5.10;4.33;;;8.20;38.60;;;;;;10392695;28;20239;-76
2021/10/24 08:33:54;;;;;;;4.73;4.23;;;8.40;38.70;;;;;;10383843;28;20729;-76
2021/10/24 08:38:59;;;;;;;4.57;3.90;;;8.70;39.20;;;;;;10384432;28;20229;-76
2021/10/24 08:44:04;;;;;;;4.60;3.83;;;9.00;39.00;;;;;;10383054;28;20233;-74
2021/10/24 08:49:09;;;;;;;3.83;3.23;;;9.30;39.10;;;;;;10372161;28;20233;-74
2021/10/24 08:54:13;;;;;;;4.47;3.40;;;9.70;39.70;;;;;;10382708;28;20304;-76
2021/10/24 08:59:18;;;;;;;3.37;3.07;;;10.10;37.90;;;;;;10379106;28;20389;-76
2021/10/24 09:04:24;;;;;;;4.17;3.10;;;10.40;37.30;;;;;;10360130;28;20790;-72
2021/10/24 09:09:30;;;;;;;6.00;3.40;;;10.80;37.00;;;;;;10378346;28;20725;-73
2021/10/24 09:14:46;;;;;;;5.63;3.50;;;11.00;36.70;;;;;;10331361;28;20249;-72
2021/10/24 09:19:53;;;;;;;3.67;3.07;;;11.30;36.60;;;;;;10383827;28;20750;-78
2021/10/24 09:25:01;;;;;;;3.07;2.80;;;11.60;36.60;;;;;;10379264;28;20694;-78
2021/10/24 09:30:23;;;;;;;5.53;3.00;;;11.90;36.30;;;;;;10366517;28;20238;-77
2021/10/24 09:35:31;;;;;;;3.97;2.97;;;12.20;35.80;;;;;;10377585;28;20316;-74
2021/10/24 09:40:36;;;;;;;4.27;2.63;;;12.40;35.30;;;;;;10372398;28;20339;-74
2021/10/24 09:45:41;;;;;;;4.00;2.20;;;12.60;35.30;;;;;;10370905;28;20249;-74
2021/10/24 09:50:50;;;;;;;2.67;2.23;;;12.80;35.00;;;;;;10379792;28;20903;-73
2021/10/24 09:56:08;;;;;;;2.93;2.40;;;13.00;34.90;;;;;;10373594;28;20233;-72
2021/10/24 10:01:14;;;;;;;3.30;2.33;;;13.20;34.20;;;;;;10385279;28;20232;-72
2021/10/24 10:06:40;;;;;;;2.90;2.50;;;13.30;34.70;;;;;;10371971;28;20258;-74
2021/10/24 10:12:01;;;;;;;4.10;2.60;;;13.50;34.00;;;;;;10343258;28;20233;-74
2021/10/24 10:17:14;;;;;;;3.60;2.40;;;13.70;34.00;;;;;;10380398;28;20649;-77
2021/10/24 10:22:29;;;;;;;4.40;2.13;;;13.90;33.90;;;;;;10377563;28;20234;-75
2021/10/24 10:27:42;;;;;;;4.57;2.40;;;14.00;33.00;;;;;;10383235;28;20256;-74
2021/10/24 10:32:52;;;;;;;2.30;2.10;;;14.30;32.40;;;;;;10383250;28;20706;-77
2021/10/24 10:37:59;;;;;;;3.93;2.50;;;14.40;33.40;;;;;;10387874;28;20709;-72
2021/10/24 10:43:08;;;;;;;3.33;2.50;;;14.50;32.60;;;;;;10391222;28;20277;-76
2021/10/24 10:48:25;;;;;;;2.37;1.73;;;14.60;32.70;;;;;;10382864;28;20306;-74
2021/10/24 10:53:52;;;;;;;3.33;2.27;;;14.70;31.80;;;;;;10375824;28;20607;-75
2021/10/24 10:58:59;;;;;;;5.20;2.10;;;14.80;31.90;;;;;;10385952;28;20257;-77
2021/10/24 11:04:19;;;;;;;3.77;2.30;;;14.90;32.00;;;;;;10381089;28;20371;-74
2021/10/24 11:09:52;;;;;;;3.40;2.00;;;15.00;32.00;;;;;;10348495;28;20593;-76
2021/10/24 11:15:10;;;;;;;3.03;1.87;;;15.10;31.50;;;;;;10385119;28;20986;-76
2021/10/24 11:20:16;;;;;;;3.13;2.00;;;15.20;30.60;;;;;;10388199;28;20229;-74
2021/10/24 11:25:31;;;;;;;1.80;1.70;;;15.30;31.80;;;;;;10357962;28;20225;-74
2021/10/24 11:30:39;;;;;;;3.23;2.00;;;15.30;31.10;;;;;;10369001;28;20229;-76
2021/10/24 11:35:44;;;;;;;2.83;2.00;;;15.60;32.10;;;;;;10372028;28;20249;-76
2021/10/24 11:40:52;;;;;;;1.93;1.70;;;15.60;32.00;;;;;;10371295;28;20878;-77
2021/10/24 11:46:08;;;;;;;4.67;2.10;;;15.60;30.60;;;;;;10373459;28;20260;-76
2021/10/24 11:51:15;;;;;;;2.10;1.73;;;15.60;31.00;;;;;;10375717;28;20253;-75
2021/10/24 11:56:35;;;;;;;1.90;1.70;;;15.80;30.70;;;;;;10379130;28;20233;-75
2021/10/24 12:01:41;;;;;;;3.73;1.80;;;16.00;30.50;;;;;;10375900;28;20760;-76
2021/10/24 12:06:54;;;;;;;2.63;1.70;;;16.00;31.60;;;;;;10371730;28;20584;-71
2021/10/24 12:12:07;;;;;;;2.97;1.83;;;16.10;30.70;;;;;;10372863;28;20245;-72
2021/10/24 12:17:17;;;;;;;3.10;2.10;;;16.20;29.90;;;;;;10354725;28;20798;-71
2021/10/24 12:22:21;;;;;;;3.17;2.30;;;16.20;29.80;;;;;;10372231;28;20222;-75
2021/10/24 12:27:31;;;;;;;3.07;2.10;;;16.20;30.30;;;;;;10369035;28;20245;-75
2021/10/24 12:32:38;;;;;;;2.93;1.77;;;16.10;29.40;;;;;;10379431;28;20257;-76
2021/10/24 12:37:42;;;;;;;3.30;2.13;;;16.10;29.60;;;;;;10388007;28;20241;-76
2021/10/24 12:43:03;;;;;;;3.17;2.00;;;16.20;30.20;;;;;;10382553;28;20295;-76
2021/10/24 12:48:06;;;;;;;2.23;1.57;;;16.20;29.40;;;;;;10378785;28;20253;-75
2021/10/24 12:53:27;;;;;;;3.33;1.77;;;16.30;30.10;;;;;;10365127;28;20579;-75
2021/10/24 12:58:34;;;;;;;2.70;1.83;;;16.30;29.30;;;;;;10395132;28;20264;-73
2021/10/24 13:03:46;;;;;;;2.57;1.80;;;16.30;29.30;;;;;;10382986;28;20450;-76
2021/10/24 13:08:52;;;;;;;3.53;1.80;;;16.40;29.10;;;;;;10370913;28;20233;-77
2021/10/24 13:13:58;;;;;;;1.97;1.77;;;16.40;29.10;;;;;;10390630;28;20234;-81
2021/10/24 13:19:05;;;;;;;2.43;1.60;;;16.50;29.30;;;;;;10395605;28;20233;-71
2021/10/24 13:24:16;;;;;;;2.67;1.90;;;16.40;29.60;;;;;;10388406;28;20224;-72
2021/10/24 13:29:22;;;;;;;2.63;1.60;;;16.50;28.70;;;;;;10383589;28;20222;-72
2021/10/24 13:34:27;;;;;;;1.50;1.30;;;16.50;29.10;;;;;;10378423;28;20258;-72
2021/10/24 13:39:32;;;;;;;2.97;1.77;;;16.60;29.50;;;;;;10386770;28;20316;-72
2021/10/24 13:44:40;;;;;;;2.30;1.90;;;16.60;29.40;;;;;;10381057;28;20247;-72
2021/10/24 13:49:58;;;;;;;2.87;1.80;;;16.60;29.20;;;;;;10349787;28;20774;-73
2021/10/24 13:55:03;;;;;;;3.60;1.77;;;16.70;29.30;;;;;;10382995;28;20230;-75
2021/10/24 14:00:20;;;;;;;3.53;2.00;;;16.70;29.30;;;;;;10387670;28;20252;-72
2021/10/24 14:05:28;;;;;;;3.50;2.07;;;16.70;28.30;;;;;;10300566;28;20833;-72
2021/10/24 14:10:34;;;;;;;3.47;1.80;;;16.70;28.90;;;;;;10373162;28;20229;-74
2021/10/24 14:15:43;;;;;;;2.30;1.90;;;16.70;29.10;;;;;;10387127;28;20729;-78
2021/10/24 14:20:56;;;;;;;2.03;1.57;;;16.70;28.70;;;;;;10376807;28;20234;-78
2021/10/24 14:26:01;;;;;;;3.33;1.87;;;16.50;28.20;;;;;;10367076;28;20583;-78
2021/10/24 14:31:25;;;;;;;2.50;1.80;;;16.70;28.70;;;;;;10394669;28;20252;-80
2021/10/24 14:36:32;;;;;;;2.50;1.60;;;16.70;28.40;;;;;;10395521;28;20238;-81
2021/10/24 14:41:38;;;;;;;2.93;1.80;;;16.70;28.70;;;;;;10368846;28;20239;-77
2021/10/24 14:46:49;;;;;;;2.00;1.70;;;16.70;28.60;;;;;;10391133;28;20244;-77
2021/10/24 14:52:12;;;;;;;3.17;1.80;;;16.70;28.40;;;;;;10374524;28;20237;-76
2021/10/24 14:57:17;;;;;;;2.57;2.00;;;16.70;28.70;;;;;;10372836;28;20894;-77
2021/10/24 15:09:20;;;;;;;4.03;1.80;;;16.70;28.20;;;;;;10189540;28;20368;-78
2021/10/24 15:14:43;;;;;;;3.40;1.80;;;16.70;27.90;;;;;;10366140;28;20240;-79
2021/10/24 15:30:27;;;;;;;4.27;2.73;;;16.50;28.40;;;;;;10355745;28;20301;-72
2021/10/24 15:35:30;;;;;;;3.97;2.40;;;16.40;28.00;;;;;;10322806;28;20238;-72
2021/10/24 15:40:35;;;;;;;2.90;2.37;;;16.40;28.20;;;;;;10310002;28;20600;-72
2021/10/24 15:45:40;;;;;;;2.60;2.20;;;16.30;28.00;;;;;;10307890;28;20770;-74
2021/10/24 15:50:43;;;;;;;2.73;2.10;;;16.20;28.10;;;;;;10311722;28;20250;-71
2021/10/24 15:55:47;;;;;;;2.87;1.97;;;16.20;28.30;;;;;;10310509;28;20243;-71
2021/10/24 16:00:51;;;;;;;3.67;2.20;;;16.10;28.30;;;;;;10311336;28;20233;-72
2021/10/24 16:05:55;;;;;;;3.13;2.17;;;16.00;28.20;;;;;;10314388;28;20870;-71
2021/10/24 16:10:58;;;;;;;3.20;1.67;;;16.00;28.40;;;;;;10310342;28;20246;-72
2021/10/24 16:16:02;;;;;;;2.93;1.80;;;15.90;28.50;;;;;;10312488;28;20242;-72
2021/10/24 16:21:06;;;;;;;4.07;2.00;;;15.80;28.40;;;;;;10311085;28;20238;-72
2021/10/24 16:26:10;;;;;;;3.93;1.80;;;15.70;28.50;;;;;;10315099;28;20623;-72
2021/10/24 16:31:15;;;;;;;3.77;1.90;;;15.60;28.60;;;;;;10316488;28;20241;-71
2021/10/24 16:36:18;;;;;;;1.90;1.50;;;15.40;28.60;;;;;;10310969;28;20222;-72
2021/10/24 16:41:21;;;;;;;3.73;1.73;;;15.30;28.70;;;;;;10315933;28;20245;-71
2021/10/24 16:46:26;;;;;;;2.80;2.50;;;15.20;28.80;;;;;;10309423;28;20239;-71
2021/10/24 16:51:29;;;;;;;2.83;2.50;;;15.00;28.70;;;;;;10316549;28;20285;-71
2021/10/24 16:56:33;;;;;;;4.30;3.20;;;14.90;28.70;;;;;;10307801;28;20242;-71
2021/10/24 17:01:37;;;;;;;5.27;4.17;;;14.80;28.80;;;;;;10310413;28;20223;-72
2021/10/24 17:06:42;;;;;;;4.73;4.23;;;14.60;28.80;;;;;;10313003;28;20317;-71
2021/10/24 17:11:45;;;;;;;5.77;4.80;;;14.50;28.80;;;;;;10315164;28;20313;-71
2021/10/24 17:16:54;;;;;;;5.53;4.07;;;14.30;28.90;;;;;;10308697;28;20227;-71
2021/10/24 17:21:58;;;;;;;6.00;5.03;;;14.20;28.90;;;;;;10308927;28;20234;-71
2021/10/24 17:27:01;;;;;;;7.43;5.27;;;14.10;29.10;;;;;;10312972;28;20244;-71
2021/10/24 17:32:06;;;;;;;5.83;4.60;;;13.90;29.00;;;;;;10315633;28;20233;-71
2021/10/24 17:37:10;;;;;;;7.33;5.27;;;13.80;29.00;;;;;;10307227;28;20227;-71
2021/10/24 17:42:13;;;;;;;4.10;3.70;;;13.70;29.10;;;;;;10314209;28;20238;-70
2021/10/24 17:47:18;;;;;;;3.40;2.40;;;13.50;29.10;;;;;;10320398;28;20602;-70
2021/10/24 17:52:21;;;;;;;3.37;2.30;;;13.30;28.80;;;;;;10315791;28;20238;-70
2021/10/24 17:57:24;;;;;;;4.47;2.67;;;13.10;28.80;;;;;;10314596;28;20243;-70
2021/10/24 18:02:32;;;;;;;2.93;2.70;;;12.90;29.00;;;;;;10312535;28;20329;-70
2021/10/24 18:07:40;;;;;;;5.80;4.30;;;12.70;29.30;;;;;;10309635;28;20492;-70
2021/10/24 18:12:45;;;;;;;4.30;3.90;;;12.50;29.30;;;;;;10309644;28;20363;-71
2021/10/24 18:17:50;;;;;;;5.93;5.43;;;12.40;29.50;;;;;;10306000;28;20235;-70
2021/10/24 18:22:53;;;;;;;8.47;6.37;;;12.30;29.50;;;;;;10314656;28;20234;-70
2021/10/24 18:27:57;;;;;;;9.80;8.53;;;12.20;29.60;;;;;;10316489;28;20246;-70
2021/10/24 18:33:02;;;;;;;8.53;7.73;;;12.10;29.60;;;;;;10312086;28;20289;-70
2021/10/24 18:38:06;;;;;;;8.50;7.70;;;12.00;29.70;;;;;;10306235;28;20230;-70
2021/10/24 18:43:09;;;;;;;8.80;7.93;;;11.80;29.50;;;;;;10310751;28;20258;-71
2021/10/24 18:48:14;;;;;;;10.43;9.30;;;11.70;29.50;;;;;;10301914;28;20234;-70
2021/10/24 18:53:18;;;;;;;16.33;13.43;;;11.60;29.40;;;;;;10310379;28;20244;-71
2021/10/24 18:58:21;;;;;;;15.87;12.70;;;11.50;29.40;;;;;;10307648;28;20305;-71
2021/10/24 19:03:26;;;;;;;17.30;14.07;;;11.40;29.30;;;;;;10310189;28;20747;-71
2021/10/24 19:08:31;;;;;;;11.90;10.70;;;11.40;29.70;;;;;;10313301;28;20230;-71
2021/10/24 19:13:34;;;;;;;12.57;10.97;;;11.20;29.60;;;;;;10310977;28;20237;-70
2021/10/24 19:18:39;;;;;;;11.90;10.40;;;11.10;29.60;;;;;;10304822;28;20238;-71
2021/10/24 19:23:43;;;;;;;9.97;8.97;;;10.90;29.80;;;;;;10313225;28;20314;-71
2021/10/24 19:28:46;;;;;;;9.07;7.10;;;10.90;29.90;;;;;;10315238;28;20305;-72
2021/10/24 19:33:50;;;;;;;7.50;6.80;;;10.80;29.90;;;;;;10314927;28;20227;-73
2021/10/24 19:38:56;;;;;;;6.73;6.03;;;10.80;29.90;;;;;;10301779;28;20226;-73
2021/10/24 19:44:00;;;;;;;7.23;6.03;;;10.70;29.80;;;;;;10317433;28;20731;-71
2021/10/24 19:49:05;;;;;;;9.97;8.70;;;10.70;29.90;;;;;;10318523;28;20223;-72
